Terminal Aerodrome Forecast
Issued by NWS Brownsville, TX

Home | Current Version | Previous Version | Text Only | Print | Product List | Glossary On
Versions: 1 2 3 4 5 6 7 8 9 10 11 12 13 14 15 16 17 18 19 20 21
000
FTUS44 KBRO 201700
TAFBRO
TAF
KBRO 201729Z 2018/2118 08010KT P6SM VCSH SCT035
     FM210000 08006KT P6SM FEW025
     FM211600 07012KT P6SM SCT040=

USA.gov is the U.S. government's official web portal to all federal, state and local government web resources and services.